createdAt,value
2023-02-11T00:02:08.380Z,17.30
2023-02-11T00:04:36.398Z,18.10
2023-02-11T00:07:04.345Z,17.40
2023-02-11T00:09:37.926Z,18.30
2023-02-11T00:12:06.134Z,17.80
2023-02-11T00:14:33.962Z,17.50
2023-02-11T00:17:02.369Z,17.30
2023-02-11T00:19:30.711Z,17.30
2023-02-11T00:21:59.004Z,16.80
2023-02-11T00:24:26.956Z,16.90
2023-02-11T00:26:54.829Z,16.60
2023-02-11T00:29:23.327Z,17.70
2023-02-11T00:31:51.376Z,17.20
2023-02-11T00:34:19.360Z,16.70
2023-02-11T00:36:47.205Z,16.90
2023-02-11T00:39:16.060Z,16.30
2023-02-11T00:41:44.909Z,15.40
2023-02-11T00:44:14.044Z,16.10
2023-02-11T00:46:42.082Z,15.40
2023-02-11T00:49:11.596Z,16.00
2023-02-11T00:51:39.857Z,15.30
2023-02-11T00:54:08.143Z,16.30
2023-02-11T00:56:36.492Z,15.90
2023-02-11T00:59:04.544Z,15.10
2023-02-11T01:01:33.434Z,15.80
2023-02-11T01:04:01.990Z,15.10
2023-02-11T01:06:29.980Z,16.10
2023-02-11T01:08:59.233Z,14.60
2023-02-11T01:11:27.798Z,15.00
2023-02-11T01:13:55.692Z,14.50
2023-02-11T01:16:23.992Z,15.30
2023-02-11T01:18:53.474Z,14.40
2023-02-11T01:21:21.479Z,14.50
2023-02-11T01:23:52.442Z,14.30
2023-02-11T01:26:20.278Z,14.10
2023-02-11T01:28:48.172Z,14.40
2023-02-11T01:31:16.167Z,14.10
2023-02-11T01:33:44.155Z,13.90
2023-02-11T01:36:12.812Z,13.90
2023-02-11T01:38:41.358Z,14.10
2023-02-11T01:41:10.957Z,14.30
2023-02-11T01:43:42.134Z,13.60
2023-02-11T01:46:28.655Z,13.90
2023-02-11T01:49:00.316Z,13.70
2023-02-11T01:51:35.367Z,13.70
2023-02-11T01:54:23.014Z,13.40
2023-02-11T01:57:12.160Z,14.00
2023-02-11T02:00:06.560Z,14.40
2023-02-11T02:02:52.797Z,13.80
2023-02-11T02:05:42.750Z,13.70
2023-02-11T02:08:18.386Z,14.10
2023-02-11T02:10:48.007Z,14.40
2023-02-11T02:13:18.318Z,14.70
2023-02-11T02:15:58.770Z,14.10
2023-02-11T02:18:45.475Z,13.90
2023-02-11T02:21:45.531Z,14.30
2023-02-11T02:24:35.152Z,14.40
2023-02-11T02:27:15.326Z,14.20
2023-02-11T02:30:22.103Z,14.70
2023-02-11T02:33:22.462Z,13.80
2023-02-11T02:35:57.897Z,14.90
2023-02-11T02:38:35.474Z,13.70
2023-02-11T02:41:04.967Z,14.40
2023-02-11T02:43:33.145Z,13.70
2023-02-11T02:46:16.974Z,14.40
2023-02-11T02:51:36.276Z,14.40
2023-02-11T02:54:38.661Z,14.40
2023-02-11T02:57:34.839Z,15.30
2023-02-11T03:00:26.548Z,14.50
2023-02-11T03:03:03.347Z,14.90
2023-02-11T03:05:58.770Z,14.50
2023-02-11T03:08:33.970Z,15.10
2023-02-11T03:11:01.941Z,15.00
2023-02-11T03:13:33.766Z,14.40
2023-02-11T03:16:15.900Z,15.00
2023-02-11T03:18:46.337Z,14.40
2023-02-11T03:21:14.314Z,14.50
2023-02-11T03:23:51.140Z,14.50
2023-02-11T03:26:30.321Z,14.60
2023-02-11T03:29:17.131Z,14.30
2023-02-11T03:31:49.757Z,14.80
2023-02-11T03:34:36.373Z,14.90
2023-02-11T03:37:08.083Z,14.20
2023-02-11T03:39:38.418Z,14.80
2023-02-11T03:42:06.967Z,15.90
2023-02-11T03:44:37.867Z,15.70
2023-02-11T03:47:06.010Z,15.10
2023-02-11T03:49:34.313Z,15.40
2023-02-11T03:52:03.880Z,14.60
2023-02-11T03:54:32.527Z,14.40
2023-02-11T03:57:01.157Z,13.70
2023-02-11T03:59:29.438Z,13.50
2023-02-11T04:01:59.638Z,14.30
2023-02-11T04:04:27.565Z,14.00
2023-02-11T04:06:55.777Z,14.00
2023-02-11T04:09:23.659Z,13.50
2023-02-11T04:11:51.764Z,13.40
2023-02-11T04:14:19.703Z,14.60
2023-02-11T04:16:48.073Z,13.90
2023-02-11T04:19:16.777Z,14.50
2023-02-11T04:21:44.731Z,14.60
2023-02-11T04:24:12.738Z,14.80
2023-02-11T04:26:41.080Z,14.80
2023-02-11T04:29:09.984Z,14.20
2023-02-11T04:31:37.932Z,14.10
2023-02-11T04:34:05.892Z,14.00
2023-02-11T04:36:34.868Z,14.40
2023-02-11T04:39:02.784Z,14.90
2023-02-11T04:41:31.108Z,14.10
2023-02-11T04:43:59.022Z,15.20
2023-02-11T04:46:29.340Z,14.50
2023-02-11T04:48:57.851Z,14.00
2023-02-11T04:51:25.782Z,14.10
2023-02-11T04:53:56.620Z,15.10
2023-02-11T04:56:24.635Z,13.60
2023-02-11T04:58:52.512Z,15.10
2023-02-11T05:01:20.645Z,14.20
2023-02-11T05:03:48.615Z,14.10
2023-02-11T05:06:17.059Z,14.60
2023-02-11T05:08:44.972Z,14.90
2023-02-11T05:11:23.296Z,14.10
2023-02-11T05:13:51.465Z,13.30
2023-02-11T05:16:20.720Z,14.20
2023-02-11T05:18:52.468Z,14.10
2023-02-11T05:21:20.563Z,13.90
2023-02-11T05:23:48.603Z,13.10
2023-02-11T05:26:16.690Z,13.70
2023-02-11T05:28:45.091Z,13.10
2023-02-11T05:31:14.935Z,14.00
2023-02-11T05:33:43.306Z,13.50
2023-02-11T05:36:11.969Z,13.00
2023-02-11T05:38:40.022Z,13.30
2023-02-11T05:41:07.884Z,13.40
2023-02-11T05:43:36.827Z,12.00
2023-02-11T05:46:05.226Z,12.90
2023-02-11T05:48:34.044Z,12.50
2023-02-11T05:51:03.619Z,12.30
2023-02-11T05:53:31.625Z,12.90
2023-02-11T05:55:59.834Z,13.00
2023-02-11T05:58:28.160Z,13.30
2023-02-11T06:00:56.445Z,12.90
2023-02-11T06:03:24.890Z,13.30
2023-02-11T06:05:53.285Z,12.40
2023-02-11T06:08:22.853Z,13.00
2023-02-11T06:10:54.030Z,13.90
2023-02-11T06:13:21.951Z,13.90
2023-02-11T06:16:00.148Z,15.50
2023-02-11T06:18:29.557Z,15.60
2023-02-11T06:20:57.550Z,16.10
2023-02-11T06:23:30.330Z,14.80
2023-02-11T06:26:02.312Z,14.70
2023-02-11T06:28:33.352Z,14.80
2023-02-11T06:31:06.772Z,14.50
2023-02-11T06:33:35.550Z,14.10
2023-02-11T06:36:04.213Z,14.00
2023-02-11T06:38:33.176Z,14.10
2023-02-11T06:41:01.253Z,13.90
2023-02-11T06:43:29.376Z,14.50
2023-02-11T06:45:57.311Z,13.90
2023-02-11T06:48:25.264Z,14.10
2023-02-11T06:50:53.174Z,13.80
2023-02-11T06:53:21.515Z,13.50
2023-02-11T06:55:49.536Z,14.10
2023-02-11T06:58:18.333Z,13.60
2023-02-11T07:00:46.219Z,13.50
2023-02-11T07:03:14.145Z,13.50
2023-02-11T07:05:43.137Z,13.90
2023-02-11T07:08:11.130Z,13.90
2023-02-11T07:10:42.232Z,13.60
2023-02-11T07:13:10.182Z,14.00
2023-02-11T07:15:38.510Z,13.80
2023-02-11T07:18:06.822Z,14.00
2023-02-11T07:20:37.314Z,14.10
2023-02-11T07:23:05.351Z,14.10
2023-02-11T07:25:33.276Z,13.40
2023-02-11T07:28:05.290Z,14.10
2023-02-11T07:30:34.167Z,14.20
2023-02-11T07:33:02.085Z,14.90
2023-02-11T07:35:30.195Z,14.80
2023-02-11T07:37:58.420Z,18.90
2023-02-11T07:40:26.558Z,17.40
2023-02-11T07:42:54.706Z,16.50
2023-02-11T07:45:25.365Z,16.00
2023-02-11T07:47:53.834Z,17.10
2023-02-11T07:50:21.886Z,16.70
2023-02-11T07:52:49.866Z,17.30
2023-02-11T07:55:18.260Z,16.50
2023-02-11T07:57:46.282Z,17.60
2023-02-11T08:00:15.002Z,17.00
2023-02-11T08:02:42.892Z,15.40
2023-02-11T08:05:11.248Z,16.20
2023-02-11T08:07:39.622Z,14.60
2023-02-11T08:10:08.005Z,15.60
2023-02-11T08:12:36.566Z,15.90
2023-02-11T08:15:04.760Z,15.70
2023-02-11T08:17:35.490Z,15.20
2023-02-11T08:20:04.754Z,15.40
2023-02-11T08:22:33.997Z,15.90
2023-02-11T08:25:01.982Z,16.40
2023-02-11T08:27:32.036Z,17.80
2023-02-11T08:30:00.439Z,16.10
2023-02-11T08:32:28.734Z,16.80
2023-02-11T08:34:56.971Z,16.30
2023-02-11T08:37:24.905Z,16.30
2023-02-11T08:39:52.848Z,15.50
2023-02-11T08:42:20.831Z,16.10
2023-02-11T08:44:48.736Z,15.70
2023-02-11T08:47:16.852Z,15.80
2023-02-11T08:49:45.202Z,16.50
2023-02-11T08:52:13.361Z,14.90
2023-02-11T08:54:41.587Z,15.70
2023-02-11T08:57:09.543Z,16.10
2023-02-11T08:59:40.004Z,15.40
2023-02-11T09:02:13.299Z,15.30
2023-02-11T09:04:41.228Z,15.70
2023-02-11T09:07:13.501Z,15.50
2023-02-11T09:09:42.199Z,15.60
2023-02-11T09:12:10.176Z,15.50
2023-02-11T09:14:39.246Z,16.00
2023-02-11T09:17:07.725Z,16.30
2023-02-11T09:19:36.279Z,16.00
2023-02-11T09:22:04.680Z,15.90
2023-02-11T09:24:32.821Z,16.40
2023-02-11T09:27:01.209Z,16.40
2023-02-11T09:29:29.220Z,16.30
2023-02-11T09:31:57.225Z,17.20
2023-02-11T09:34:25.072Z,16.70
2023-02-11T09:36:53.082Z,15.80
2023-02-11T09:39:20.985Z,16.60
2023-02-11T09:41:59.714Z,16.70
2023-02-11T09:44:30.340Z,16.50
2023-02-11T09:47:20.955Z,17.10
2023-02-11T09:49:51.341Z,17.10
2023-02-11T09:52:37.933Z,17.10
2023-02-11T09:55:15.274Z,17.50
2023-02-11T09:57:43.557Z,17.90
2023-02-11T10:00:23.472Z,17.70
2023-02-11T10:03:01.175Z,17.90
2023-02-11T10:05:58.273Z,16.80
2023-02-11T10:08:42.901Z,17.30
2023-02-11T10:11:56.534Z,16.60
2023-02-11T10:14:28.545Z,16.40
2023-02-11T10:17:34.423Z,16.70
2023-02-11T10:20:23.815Z,17.30
2023-02-11T10:22:57.300Z,18.10
2023-02-11T10:25:39.601Z,16.70
2023-02-11T10:28:32.234Z,17.30
2023-02-11T10:31:13.771Z,16.70
2023-02-11T10:33:58.836Z,16.90
2023-02-11T10:36:33.429Z,17.20
2023-02-11T10:39:11.876Z,16.60
2023-02-11T10:41:44.760Z,16.10
2023-02-11T10:44:28.238Z,16.30
2023-02-11T10:46:56.420Z,16.60
2023-02-11T10:49:54.099Z,16.70
2023-02-11T10:52:27.078Z,16.80
2023-02-11T10:55:01.440Z,16.60
2023-02-11T10:57:33.907Z,16.70
2023-02-11T11:00:08.608Z,16.90
2023-02-11T11:02:38.753Z,16.10
2023-02-11T11:05:16.352Z,17.40
2023-02-11T11:09:30.816Z,17.50
2023-02-11T11:11:58.634Z,17.40
2023-02-11T11:14:29.116Z,17.80
2023-02-11T11:16:57.263Z,17.70
2023-02-11T11:19:26.038Z,17.20
2023-02-11T11:21:54.938Z,17.70
2023-02-11T11:24:46.823Z,17.20
2023-02-11T11:27:19.671Z,17.70
2023-02-11T11:29:50.020Z,17.10
2023-02-11T11:32:26.233Z,18.70
2023-02-11T11:34:55.935Z,18.10
2023-02-11T11:37:27.024Z,17.80
2023-02-11T11:40:25.270Z,19.50
2023-02-11T11:43:23.037Z,18.40
2023-02-11T11:45:58.809Z,18.60
2023-02-11T11:48:32.958Z,18.50
2023-02-11T11:51:02.992Z,16.40
2023-02-11T11:54:00.493Z,17.60
2023-02-11T11:56:30.740Z,17.30
2023-02-11T11:59:00.935Z,17.30
2023-02-11T12:01:47.989Z,18.10
2023-02-11T12:04:37.908Z,18.30
2023-02-11T12:07:15.217Z,17.70
2023-02-11T12:10:04.764Z,19.00
2023-02-11T12:13:05.489Z,18.50
2023-02-11T12:15:58.784Z,18.40
2023-02-11T12:18:47.627Z,18.40
2023-02-11T12:21:39.058Z,17.60
2023-02-11T12:24:31.929Z,19.50
2023-02-11T12:27:27.127Z,18.10
2023-02-11T12:30:16.531Z,28.70
2023-02-11T12:33:04.891Z,26.90
2023-02-11T12:36:04.026Z,26.30
2023-02-11T12:38:43.094Z,17.40
2023-02-11T12:41:39.998Z,17.50
2023-02-11T12:44:11.406Z,16.70
2023-02-11T12:47:02.850Z,17.10
2023-02-11T12:49:43.010Z,21.80
2023-02-11T12:52:39.181Z,20.90
2023-02-11T12:55:20.749Z,18.70
2023-02-11T12:57:49.207Z,15.70
2023-02-11T13:00:22.920Z,15.30
2023-02-11T13:02:54.575Z,15.00
2023-02-11T13:05:49.721Z,14.00
2023-02-11T13:08:21.398Z,13.50
2023-02-11T13:10:54.106Z,13.80
2023-02-11T13:13:25.674Z,13.40
2023-02-11T13:16:09.489Z,13.00
2023-02-11T13:19:13.407Z,12.60
2023-02-11T13:22:05.978Z,11.80
2023-02-11T13:24:40.067Z,11.20
2023-02-11T13:27:28.991Z,11.50
2023-02-11T13:30:36.881Z,10.80
2023-02-11T13:33:06.825Z,8.90
2023-02-11T13:35:35.639Z,8.80
2023-02-11T13:38:16.448Z,8.30
2023-02-11T13:40:44.373Z,8.10
2023-02-11T13:43:21.796Z,8.20
2023-02-11T13:45:50.548Z,9.70
2023-02-11T13:48:27.187Z,10.60
2023-02-11T13:50:58.185Z,10.20
2023-02-11T13:53:27.912Z,9.90
2023-02-11T13:56:11.362Z,10.50
2023-02-11T13:58:49.567Z,9.90
2023-02-11T14:02:05.841Z,10.30
2023-02-11T14:04:53.384Z,9.70
2023-02-11T14:07:50.951Z,9.30
2023-02-11T14:10:41.114Z,9.60
2023-02-11T14:13:31.027Z,9.20
2023-02-11T14:16:36.863Z,9.60
2023-02-11T14:19:06.794Z,9.60
2023-02-11T14:21:38.784Z,9.30
2023-02-11T14:26:47.048Z,8.90
2023-02-11T14:29:20.119Z,9.10
2023-02-11T14:31:51.512Z,9.70
2023-02-11T14:37:14.161Z,8.80
2023-02-11T14:39:54.780Z,9.00
2023-02-11T14:42:26.917Z,9.50
2023-02-11T14:45:04.101Z,9.40
2023-02-11T14:47:58.692Z,9.90
2023-02-11T14:50:32.026Z,8.80
2023-02-11T14:53:01.164Z,9.70
2023-02-11T14:55:38.047Z,9.40
2023-02-11T14:58:29.655Z,9.50
2023-02-11T15:01:29.828Z,9.40
2023-02-11T15:04:00.548Z,9.20
2023-02-11T15:06:28.895Z,12.50
2023-02-11T15:09:01.016Z,10.20
2023-02-11T15:11:39.859Z,10.20
2023-02-11T15:14:18.870Z,9.90
2023-02-11T15:16:46.799Z,10.20
2023-02-11T15:19:34.674Z,10.00
2023-02-11T15:22:06.818Z,10.10
2023-02-11T15:24:35.589Z,10.40
2023-02-11T15:27:15.542Z,10.70
2023-02-11T15:29:45.365Z,11.00
2023-02-11T15:32:17.023Z,10.00
2023-02-11T15:34:45.869Z,11.00
2023-02-11T15:37:27.466Z,10.40
2023-02-11T15:39:56.027Z,9.90
2023-02-11T15:42:40.759Z,10.90
2023-02-11T15:45:15.395Z,10.70
2023-02-11T15:47:52.004Z,11.10
2023-02-11T15:50:31.257Z,10.80
2023-02-11T15:53:01.179Z,11.50
2023-02-11T15:55:29.192Z,10.80
2023-02-11T15:58:00.292Z,12.30
2023-02-11T16:00:34.585Z,11.80
2023-02-11T16:03:02.572Z,12.40
2023-02-11T16:05:35.757Z,11.20
2023-02-11T16:08:22.010Z,11.50
2023-02-11T16:11:08.665Z,11.90
2023-02-11T16:13:46.819Z,11.80
2023-02-11T16:16:25.653Z,12.30
2023-02-11T16:19:04.581Z,13.00
2023-02-11T16:21:39.007Z,12.10
2023-02-11T16:24:07.497Z,11.70
2023-02-11T16:26:41.041Z,11.80
2023-02-11T16:29:16.881Z,12.10
2023-02-11T16:31:46.888Z,12.00
2023-02-11T16:34:23.312Z,11.50
2023-02-11T16:36:52.146Z,11.80
2023-02-11T16:39:24.580Z,11.80
2023-02-11T16:41:52.752Z,11.30
2023-02-11T16:44:21.795Z,12.10
2023-02-11T16:46:51.980Z,12.80
2023-02-11T16:49:24.659Z,12.50
2023-02-11T16:51:54.022Z,11.60
2023-02-11T16:54:23.511Z,12.00
2023-02-11T16:56:51.368Z,11.60
2023-02-11T16:59:21.367Z,11.90
2023-02-11T17:01:49.668Z,12.00
2023-02-11T17:04:24.082Z,11.20
2023-02-11T17:06:55.996Z,11.80
2023-02-11T17:09:30.134Z,11.20
2023-02-11T17:12:01.785Z,11.60
2023-02-11T17:14:30.131Z,11.30
2023-02-11T17:16:58.250Z,11.60
2023-02-11T17:19:26.148Z,11.50
2023-02-11T17:21:54.265Z,11.50
2023-02-11T17:24:22.870Z,11.30
2023-02-11T17:26:50.882Z,11.30
2023-02-11T17:29:22.436Z,11.70
2023-02-11T17:31:52.007Z,11.30
2023-02-11T17:34:21.201Z,11.90
2023-02-11T17:36:49.384Z,11.60
2023-02-11T17:39:17.548Z,11.50
2023-02-11T17:41:46.648Z,11.30
2023-02-11T17:44:16.601Z,11.20
2023-02-11T17:46:45.142Z,11.20
2023-02-11T17:49:16.594Z,10.90
2023-02-11T17:51:50.107Z,11.10
2023-02-11T17:54:18.784Z,11.10
2023-02-11T17:56:49.286Z,11.50
2023-02-11T17:59:19.471Z,10.40
2023-02-11T18:01:47.472Z,11.10
2023-02-11T18:04:17.604Z,10.90
2023-02-11T18:06:45.542Z,10.80
2023-02-11T18:09:13.423Z,10.80
2023-02-11T18:11:41.292Z,11.20
2023-02-11T18:14:10.372Z,10.90
2023-02-11T18:16:43.113Z,10.80
2023-02-11T18:19:11.544Z,10.90
2023-02-11T18:21:39.551Z,10.80
2023-02-11T18:24:07.453Z,11.10
2023-02-11T18:26:35.498Z,11.50
2023-02-11T18:29:03.962Z,11.10
2023-02-11T18:31:31.986Z,10.40
2023-02-11T18:34:00.003Z,11.60
2023-02-11T18:36:28.385Z,12.20
2023-02-11T18:38:58.228Z,11.30
2023-02-11T18:41:29.846Z,10.90
2023-02-11T18:43:58.733Z,10.20
2023-02-11T18:46:26.769Z,11.30
2023-02-11T18:48:56.227Z,10.70
2023-02-11T18:51:24.608Z,11.20
2023-02-11T18:53:54.621Z,11.30
2023-02-11T18:56:23.673Z,11.50
2023-02-11T18:58:52.181Z,11.40
2023-02-11T19:01:24.210Z,12.50
2023-02-11T19:03:58.096Z,12.70
2023-02-11T19:06:27.429Z,12.00
2023-02-11T19:09:04.233Z,11.30
2023-02-11T19:11:49.937Z,12.10
2023-02-11T19:14:20.432Z,12.30
2023-02-11T19:16:50.771Z,12.40
2023-02-11T19:19:19.057Z,12.80
2023-02-11T19:21:48.945Z,12.10
2023-02-11T19:24:19.844Z,12.70
2023-02-11T19:26:48.565Z,11.90
2023-02-11T19:29:16.901Z,12.30
2023-02-11T19:31:45.131Z,12.60
2023-02-11T19:34:15.035Z,13.20
2023-02-11T19:36:43.302Z,12.80
2023-02-11T19:39:11.411Z,13.50
2023-02-11T19:41:39.570Z,13.20
2023-02-11T19:44:07.904Z,13.80
2023-02-11T19:46:37.571Z,13.60
2023-02-11T19:49:05.655Z,14.60
2023-02-11T19:51:37.462Z,13.50
2023-02-11T19:54:06.380Z,14.00
2023-02-11T19:56:34.356Z,13.70
2023-02-11T19:59:02.883Z,13.50
2023-02-11T20:01:31.060Z,13.50
2023-02-11T20:03:59.052Z,13.30
2023-02-11T20:06:28.679Z,14.90
2023-02-11T20:09:06.542Z,12.90
2023-02-11T20:11:34.861Z,13.80
2023-02-11T20:14:03.700Z,13.50
2023-02-11T20:16:46.900Z,13.90
2023-02-11T20:19:21.977Z,13.50
2023-02-11T20:21:53.781Z,13.20
2023-02-11T20:24:23.575Z,14.20
2023-02-11T20:26:55.959Z,13.40
2023-02-11T20:29:24.465Z,13.40
2023-02-11T20:31:52.917Z,14.30
2023-02-11T20:34:22.106Z,13.70
2023-02-11T20:36:53.535Z,12.80
2023-02-11T20:39:22.669Z,14.10
2023-02-11T20:41:51.422Z,13.90
2023-02-11T20:44:21.859Z,14.30
2023-02-11T20:46:50.240Z,13.70
2023-02-11T20:49:19.973Z,14.00
2023-02-11T20:51:49.373Z,14.40
2023-02-11T20:54:18.993Z,14.70
2023-02-11T20:56:51.257Z,15.20
2023-02-11T20:59:19.789Z,14.20
2023-02-11T21:01:53.485Z,13.70
2023-02-11T21:04:26.227Z,15.00
2023-02-11T21:06:56.082Z,14.80
2023-02-11T21:09:25.732Z,14.00
2023-02-11T21:11:57.037Z,14.40
2023-02-11T21:14:25.710Z,14.10
2023-02-11T21:16:53.592Z,14.90
2023-02-11T21:19:21.613Z,15.90
2023-02-11T21:21:49.938Z,15.80
2023-02-11T21:24:18.050Z,16.10
2023-02-11T21:26:48.981Z,15.90
2023-02-11T21:29:17.068Z,16.40
2023-02-11T21:31:45.098Z,15.20
2023-02-11T21:34:17.270Z,16.00
2023-02-11T21:36:45.459Z,15.80
2023-02-11T21:39:13.974Z,15.00
2023-02-11T21:41:41.862Z,15.80
2023-02-11T21:44:12.084Z,14.80
2023-02-11T21:46:40.336Z,15.30
2023-02-11T21:49:11.657Z,15.40
2023-02-11T21:51:39.666Z,16.00
2023-02-11T21:54:07.582Z,16.20
2023-02-11T21:56:36.652Z,16.10
2023-02-11T21:59:04.592Z,14.60
2023-02-11T22:01:33.253Z,14.60
2023-02-11T22:04:01.310Z,15.50
2023-02-11T22:06:31.428Z,16.20
2023-02-11T22:09:02.092Z,15.70
2023-02-11T22:11:32.719Z,16.60
2023-02-11T22:14:00.810Z,16.30
2023-02-11T22:16:30.715Z,14.90
2023-02-11T22:18:59.281Z,15.40
2023-02-11T22:21:28.059Z,15.90
2023-02-11T22:23:56.073Z,15.20
2023-02-11T22:26:26.502Z,15.80
2023-02-11T22:28:55.045Z,16.20
2023-02-11T22:31:28.478Z,16.50
2023-02-11T22:33:56.916Z,16.40
2023-02-11T22:36:29.743Z,15.60
2023-02-11T22:39:05.178Z,16.20
2023-02-11T22:41:33.399Z,16.00
2023-02-11T22:44:01.680Z,14.90
2023-02-11T22:46:29.865Z,15.10
2023-02-11T22:49:00.462Z,15.00
2023-02-11T22:51:29.380Z,14.70
2023-02-11T22:53:59.114Z,16.10
2023-02-11T22:56:27.825Z,15.70
2023-02-11T22:59:03.388Z,15.60
2023-02-11T23:01:31.759Z,15.10
2023-02-11T23:04:01.170Z,16.00
2023-02-11T23:06:29.237Z,15.70
2023-02-11T23:08:57.324Z,14.50
2023-02-11T23:11:29.139Z,16.70
2023-02-11T23:13:59.148Z,15.60
2023-02-11T23:16:29.141Z,17.40
2023-02-11T23:18:59.352Z,16.00
2023-02-11T23:21:29.470Z,14.60
2023-02-11T23:24:03.482Z,15.80
2023-02-11T23:28:12.458Z,16.10
2023-02-11T23:30:41.613Z,17.50
2023-02-11T23:33:09.793Z,16.90
2023-02-11T23:35:37.704Z,16.50
2023-02-11T23:38:05.694Z,14.50
2023-02-11T23:40:33.663Z,15.20
2023-02-11T23:43:01.646Z,14.10
2023-02-11T23:45:29.599Z,14.40
2023-02-11T23:47:57.498Z,15.20
2023-02-11T23:50:26.220Z,14.50
2023-02-11T23:52:54.206Z,14.20
2023-02-11T23:55:22.263Z,14.10
2023-02-11T23:57:50.234Z,14.10
